createdAt,value
2022-12-15T00:02:10.219Z,30.37
2022-12-15T00:04:55.311Z,33.97
2022-12-15T00:07:40.441Z,31.87
2022-12-15T00:10:25.390Z,29.80
2022-12-15T00:13:10.343Z,31.87
2022-12-15T00:15:55.506Z,30.97
2022-12-15T00:18:40.588Z,25.40
2022-12-15T00:21:25.591Z,29.13
2022-12-15T00:24:10.663Z,25.80
2022-12-15T00:26:55.662Z,28.57
2022-12-15T00:29:40.905Z,31.17
2022-12-15T00:32:25.899Z,33.13
2022-12-15T00:35:10.679Z,35.33
2022-12-15T00:37:55.799Z,29.73
2022-12-15T00:40:22.204Z,30.00
2022-12-15T00:42:49.695Z,32.33
2022-12-15T00:45:16.374Z,32.43
2022-12-15T00:47:42.793Z,31.03
2022-12-15T00:50:27.758Z,33.10
2022-12-15T00:53:12.865Z,32.47
2022-12-15T00:55:57.966Z,30.00
2022-12-15T00:58:43.002Z,30.83
2022-12-15T01:01:29.124Z,31.97
2022-12-15T01:04:14.303Z,29.97
2022-12-15T01:06:59.442Z,34.50
2022-12-15T01:09:44.465Z,30.83
2022-12-15T01:12:29.420Z,35.40
2022-12-15T01:15:14.278Z,30.67
2022-12-15T01:17:59.244Z,33.03
2022-12-15T01:20:25.650Z,27.90
2022-12-15T01:22:54.123Z,30.37
2022-12-15T01:25:23.010Z,34.30
2022-12-15T01:27:49.742Z,35.73
2022-12-15T01:30:19.819Z,32.13
2022-12-15T01:32:46.646Z,26.47
2022-12-15T01:35:13.396Z,35.03
2022-12-15T01:37:39.967Z,32.40
2022-12-15T01:40:27.004Z,33.97
2022-12-15T01:42:53.530Z,27.43
2022-12-15T01:45:29.130Z,30.70
2022-12-15T01:48:10.578Z,25.37
2022-12-15T01:50:43.806Z,30.90
2022-12-15T01:53:10.903Z,29.23
2022-12-15T01:55:39.093Z,31.90
2022-12-15T01:58:07.392Z,26.50
2022-12-15T02:00:34.584Z,32.03
2022-12-15T02:03:01.625Z,26.80
2022-12-15T02:05:30.044Z,31.37
2022-12-15T02:07:56.543Z,29.93
2022-12-15T02:10:29.449Z,32.70
2022-12-15T02:13:12.975Z,26.87
2022-12-15T02:15:51.250Z,32.07
2022-12-15T02:18:46.366Z,32.40
2022-12-15T02:21:23.954Z,27.47
2022-12-15T02:23:56.310Z,28.73
2022-12-15T02:26:56.557Z,32.73
2022-12-15T02:29:50.613Z,29.17
2022-12-15T02:32:21.438Z,31.53
2022-12-15T02:35:06.257Z,33.07
2022-12-15T02:37:35.321Z,30.53
2022-12-15T02:40:02.744Z,30.20
2022-12-15T02:42:30.633Z,36.70
2022-12-15T02:45:01.333Z,32.10
2022-12-15T02:48:10.000Z,32.83
2022-12-15T02:50:51.711Z,28.40
2022-12-15T02:53:37.063Z,38.47
2022-12-15T02:56:26.410Z,31.67
2022-12-15T02:59:12.461Z,29.10
2022-12-15T03:01:47.212Z,28.77
2022-12-15T03:04:16.772Z,28.13
2022-12-15T03:06:43.201Z,26.83
2022-12-15T03:09:09.664Z,27.83
2022-12-15T03:11:36.871Z,31.97
2022-12-15T03:14:03.769Z,29.80
2022-12-15T03:16:30.266Z,27.80
2022-12-15T03:18:57.723Z,32.33
2022-12-15T03:21:24.106Z,30.93
2022-12-15T03:23:50.482Z,31.83
2022-12-15T03:26:16.862Z,30.13
2022-12-15T03:28:43.257Z,26.83
2022-12-15T03:31:09.659Z,28.17
2022-12-15T03:33:36.055Z,33.13
2022-12-15T03:36:02.505Z,31.37
2022-12-15T03:38:28.931Z,31.03
2022-12-15T03:40:55.392Z,29.27
2022-12-15T03:43:21.795Z,26.53
2022-12-15T03:45:48.277Z,29.67
2022-12-15T03:48:14.768Z,29.67
2022-12-15T03:50:41.300Z,37.43
2022-12-15T03:53:08.024Z,30.63
2022-12-15T03:55:35.227Z,31.13
2022-12-15T03:58:02.659Z,29.90
2022-12-15T04:00:29.614Z,30.10
2022-12-15T04:02:56.212Z,29.20
2022-12-15T04:05:30.774Z,29.57
2022-12-15T04:07:58.609Z,30.90
2022-12-15T04:10:31.909Z,28.50
2022-12-15T04:13:05.785Z,29.87
2022-12-15T04:15:32.986Z,33.37
2022-12-15T04:18:01.354Z,26.80
2022-12-15T04:20:27.746Z,30.50
2022-12-15T04:22:54.235Z,31.10
2022-12-15T04:25:40.889Z,27.00
2022-12-15T04:28:26.971Z,30.70
2022-12-15T04:31:14.954Z,30.70
2022-12-15T04:34:03.642Z,30.83
2022-12-15T04:36:49.364Z,28.90
2022-12-15T04:39:34.422Z,29.50
2022-12-15T04:42:19.949Z,26.93
2022-12-15T04:45:06.510Z,30.07
2022-12-15T04:47:51.438Z,27.70
2022-12-15T04:50:36.585Z,31.77
2022-12-15T04:53:29.510Z,25.53
2022-12-15T04:56:18.496Z,30.67
2022-12-15T04:59:03.921Z,29.23
2022-12-15T05:01:49.120Z,27.43
2022-12-15T05:04:34.307Z,30.73
2022-12-15T05:07:19.313Z,25.57
2022-12-15T05:10:06.263Z,27.23
2022-12-15T05:12:54.582Z,29.00
2022-12-15T05:15:39.733Z,29.77
2022-12-15T05:18:24.737Z,30.03
2022-12-15T05:21:09.518Z,29.20
2022-12-15T05:23:54.731Z,29.50
2022-12-15T05:26:39.767Z,30.33
2022-12-15T05:29:24.796Z,29.90
2022-12-15T05:31:54.907Z,29.40
2022-12-15T05:34:26.600Z,31.50
2022-12-15T05:36:53.986Z,23.63
2022-12-15T05:39:20.815Z,25.87
2022-12-15T05:41:47.616Z,27.83
2022-12-15T05:44:14.262Z,27.13
2022-12-15T05:46:41.100Z,30.77
2022-12-15T05:49:08.825Z,26.83
2022-12-15T05:51:38.360Z,29.07
2022-12-15T05:54:04.926Z,28.87
2022-12-15T05:56:31.507Z,30.13
2022-12-15T05:58:58.250Z,27.27
2022-12-15T06:01:28.067Z,27.90
2022-12-15T06:03:54.606Z,30.57
2022-12-15T06:06:21.108Z,31.87
2022-12-15T06:08:47.565Z,31.70
2022-12-15T06:11:18.394Z,26.13
2022-12-15T06:13:45.213Z,28.03
2022-12-15T06:16:20.327Z,29.17
2022-12-15T06:18:50.781Z,31.83
2022-12-15T06:21:23.674Z,27.97
2022-12-15T06:23:50.482Z,30.73
2022-12-15T06:26:22.729Z,29.87
2022-12-15T06:28:50.163Z,34.53
2022-12-15T06:31:18.208Z,29.63
2022-12-15T06:33:44.820Z,34.53
2022-12-15T06:36:13.525Z,30.63
2022-12-15T06:38:43.366Z,28.67
2022-12-15T06:41:12.469Z,36.23
2022-12-15T06:43:39.074Z,29.67
2022-12-15T06:46:05.606Z,27.30
2022-12-15T06:48:32.109Z,29.40
2022-12-15T06:51:09.647Z,29.70
2022-12-15T06:53:48.571Z,33.93
2022-12-15T06:56:33.972Z,31.57
2022-12-15T06:59:01.936Z,30.73
2022-12-15T07:01:29.353Z,31.47
2022-12-15T07:03:57.090Z,34.00
2022-12-15T07:06:23.779Z,31.43
2022-12-15T07:08:52.664Z,29.30
2022-12-15T07:11:20.922Z,32.23
2022-12-15T07:13:54.529Z,33.60
2022-12-15T07:16:22.447Z,34.87
2022-12-15T07:18:49.175Z,28.90
2022-12-15T07:21:15.580Z,29.83
2022-12-15T07:23:58.221Z,30.23
2022-12-15T07:26:25.576Z,34.90
2022-12-15T07:28:54.112Z,27.97
2022-12-15T07:31:21.125Z,31.13
2022-12-15T07:33:48.470Z,33.03
2022-12-15T07:36:15.103Z,31.33
2022-12-15T07:38:41.578Z,26.93
2022-12-15T07:41:08.466Z,27.73
2022-12-15T07:43:36.154Z,26.43
2022-12-15T07:46:04.604Z,30.00
2022-12-15T07:48:31.907Z,28.30
2022-12-15T07:51:07.347Z,28.47
2022-12-15T07:53:35.998Z,29.43
2022-12-15T07:56:08.530Z,25.13
2022-12-15T07:58:36.574Z,30.53
2022-12-15T08:01:05.796Z,25.30
2022-12-15T08:03:33.257Z,30.43
2022-12-15T08:06:07.180Z,27.83
2022-12-15T08:08:35.359Z,26.47
2022-12-15T08:11:06.482Z,26.80
2022-12-15T08:16:23.340Z,23.67
2022-12-15T08:18:49.798Z,28.07
2022-12-15T08:21:16.259Z,27.87
2022-12-15T08:23:42.716Z,23.50
2022-12-15T08:26:12.618Z,26.30
2022-12-15T08:28:40.071Z,37.20
2022-12-15T08:31:16.427Z,29.03
2022-12-15T08:33:43.006Z,21.37
2022-12-15T08:36:11.415Z,22.03
2022-12-15T08:38:39.885Z,24.03
2022-12-15T08:41:08.553Z,27.27
2022-12-15T08:43:35.378Z,21.73
2022-12-15T08:46:02.026Z,25.77
2022-12-15T08:48:28.511Z,24.97
2022-12-15T08:50:56.172Z,20.87
2022-12-15T08:53:31.398Z,22.80
2022-12-15T08:56:09.037Z,22.47
2022-12-15T08:58:35.912Z,25.33
2022-12-15T09:01:08.018Z,21.77
2022-12-15T09:03:36.152Z,24.53
2022-12-15T09:06:08.969Z,23.87
2022-12-15T09:08:36.029Z,21.53
2022-12-15T09:11:02.965Z,20.00
2022-12-15T09:13:36.930Z,22.50
2022-12-15T09:16:13.330Z,24.73
2022-12-15T09:18:42.321Z,22.27
2022-12-15T09:21:09.378Z,21.30
2022-12-15T09:23:36.588Z,20.20
2022-12-15T09:26:08.171Z,22.33
2022-12-15T09:28:35.504Z,21.47
2022-12-15T09:31:06.534Z,19.83
2022-12-15T09:33:33.535Z,17.47
2022-12-15T09:36:00.414Z,18.93
2022-12-15T09:38:26.788Z,19.20
2022-12-15T09:40:53.401Z,18.77
2022-12-15T09:43:44.551Z,21.00
2022-12-15T09:46:23.451Z,23.47
2022-12-15T09:48:51.256Z,19.10
2022-12-15T09:51:18.765Z,19.40
2022-12-15T09:53:54.804Z,18.70
2022-12-15T09:56:50.028Z,19.90
2022-12-15T09:59:20.696Z,20.80
2022-12-15T10:02:13.878Z,18.37
2022-12-15T10:04:53.655Z,19.40
2022-12-15T10:07:28.264Z,19.33
2022-12-15T10:09:54.678Z,20.17
2022-12-15T10:12:26.522Z,19.03
2022-12-15T10:15:22.276Z,19.90
2022-12-15T10:18:06.367Z,16.33
2022-12-15T10:20:33.343Z,20.50
2022-12-15T10:23:12.946Z,18.90
2022-12-15T10:25:40.109Z,21.97
2022-12-15T10:28:15.585Z,18.03
2022-12-15T10:30:56.371Z,19.33
2022-12-15T10:33:24.215Z,19.53
2022-12-15T10:35:55.479Z,23.40
2022-12-15T10:38:40.442Z,16.03
2022-12-15T10:41:12.172Z,17.27
2022-12-15T10:43:41.166Z,18.27
2022-12-15T10:46:22.325Z,20.97
2022-12-15T10:48:51.415Z,21.33
2022-12-15T10:51:31.676Z,20.77
2022-12-15T10:54:05.338Z,21.43
2022-12-15T10:56:34.197Z,21.63
2022-12-15T10:59:03.789Z,17.40
2022-12-15T11:01:33.098Z,22.47
2022-12-15T11:03:59.953Z,20.80
2022-12-15T11:06:29.511Z,19.57
2022-12-15T11:08:57.576Z,22.33
2022-12-15T11:11:54.357Z,19.80
2022-12-15T11:14:26.078Z,25.03
2022-12-15T11:16:57.360Z,22.37
2022-12-15T11:19:49.129Z,20.17
2022-12-15T11:22:23.987Z,19.67
2022-12-15T11:24:53.648Z,17.93
2022-12-15T11:27:46.370Z,17.53
2022-12-15T11:30:15.268Z,17.00
2022-12-15T11:32:44.710Z,17.27
2022-12-15T11:35:16.508Z,20.33
2022-12-15T11:37:56.903Z,20.00
2022-12-15T11:40:39.741Z,19.50
2022-12-15T11:43:43.793Z,23.60
2022-12-15T11:46:23.125Z,18.20
2022-12-15T11:49:09.916Z,17.83
2022-12-15T11:52:17.684Z,23.87
2022-12-15T11:54:50.721Z,22.63
2022-12-15T11:57:35.727Z,17.60
2022-12-15T12:00:21.414Z,21.93
2022-12-15T12:02:57.092Z,16.87
2022-12-15T12:05:45.482Z,18.13
2022-12-15T12:08:17.843Z,17.67
2022-12-15T12:10:57.904Z,18.80
2022-12-15T12:13:27.278Z,17.80
2022-12-15T12:16:04.670Z,15.20
2022-12-15T12:18:34.790Z,19.47
2022-12-15T12:21:19.845Z,16.87
2022-12-15T12:24:09.519Z,17.80
2022-12-15T12:26:42.062Z,19.97
2022-12-15T12:29:08.392Z,21.80
2022-12-15T12:31:50.721Z,16.40
2022-12-15T12:35:30.981Z,21.07
2022-12-15T12:37:58.125Z,20.53
2022-12-15T12:40:41.873Z,18.67
2022-12-15T12:43:14.011Z,17.47
2022-12-15T12:45:47.711Z,27.07
2022-12-15T12:48:37.825Z,20.63
2022-12-15T12:51:20.439Z,19.60
2022-12-15T12:53:46.984Z,19.43
2022-12-15T12:56:40.302Z,20.37
2022-12-15T12:59:28.641Z,16.57
2022-12-15T13:01:56.469Z,17.93
2022-12-15T13:04:28.901Z,18.97
2022-12-15T13:06:59.259Z,20.17
2022-12-15T13:09:40.727Z,14.70
2022-12-15T13:12:50.858Z,17.47
2022-12-15T13:15:35.755Z,21.00
2022-12-15T13:18:06.664Z,21.20
2022-12-15T13:20:35.511Z,19.67
2022-12-15T13:23:22.142Z,16.27
2022-12-15T13:25:57.871Z,19.40
2022-12-15T13:28:40.488Z,18.03
2022-12-15T13:31:16.734Z,18.43
2022-12-15T13:34:11.291Z,17.57
2022-12-15T13:36:37.836Z,19.27
2022-12-15T13:39:27.249Z,19.87
2022-12-15T13:44:55.198Z,20.97
2022-12-15T13:47:27.524Z,20.20
2022-12-15T13:50:06.859Z,21.77
2022-12-15T13:55:38.047Z,17.93
2022-12-15T13:58:15.937Z,22.50
2022-12-15T14:00:52.262Z,19.83
2022-12-15T14:03:18.803Z,18.70
2022-12-15T14:06:11.892Z,16.23
2022-12-15T14:08:38.286Z,20.43
2022-12-15T14:11:22.331Z,18.53
2022-12-15T14:13:54.365Z,16.00
2022-12-15T14:16:22.330Z,22.53
2022-12-15T14:19:12.928Z,20.60
2022-12-15T14:21:39.540Z,22.93
2022-12-15T14:24:39.524Z,18.17
2022-12-15T14:27:06.946Z,23.90
2022-12-15T14:29:33.419Z,20.33
2022-12-15T14:32:00.565Z,18.93
2022-12-15T14:34:32.459Z,21.43
2022-12-15T14:37:02.428Z,22.87
2022-12-15T14:39:43.160Z,20.87
2022-12-15T14:42:16.548Z,18.00
2022-12-15T14:44:49.927Z,25.67
2022-12-15T14:47:27.317Z,22.20
2022-12-15T14:49:55.409Z,19.17
2022-12-15T14:52:39.369Z,19.47
2022-12-15T14:55:21.019Z,23.57
2022-12-15T14:57:48.230Z,21.67
2022-12-15T15:00:24.114Z,20.60
2022-12-15T15:02:50.612Z,21.63
2022-12-15T15:03:10.416Z,18.17
2022-12-15T15:05:27.755Z,19.00
2022-12-15T15:07:56.174Z,23.27
2022-12-15T15:10:25.097Z,24.57
2022-12-15T15:12:52.558Z,26.50
2022-12-15T15:15:21.269Z,22.13
2022-12-15T15:17:47.613Z,21.60
2022-12-15T15:20:29.914Z,26.57
2022-12-15T15:23:08.582Z,23.23
2022-12-15T15:25:41.692Z,27.53
2022-12-15T15:28:14.404Z,31.40
2022-12-15T15:30:51.044Z,26.03
2022-12-15T15:33:23.066Z,26.57
2022-12-15T15:35:52.968Z,27.47
2022-12-15T15:38:26.965Z,25.97
2022-12-15T15:40:59.013Z,26.80
2022-12-15T15:43:27.252Z,30.43
2022-12-15T15:46:05.605Z,35.17
2022-12-15T15:48:35.403Z,27.30
2022-12-15T15:51:02.776Z,29.77
2022-12-15T15:53:32.355Z,23.97
2022-12-15T15:55:59.213Z,32.53
2022-12-15T15:58:25.849Z,32.60
2022-12-15T16:00:53.425Z,29.00
2022-12-15T16:03:20.109Z,37.87
2022-12-15T16:05:46.765Z,27.47
2022-12-15T16:08:16.348Z,28.93
2022-12-15T16:10:48.040Z,31.00
2022-12-15T16:13:25.563Z,25.27
2022-12-15T16:15:52.940Z,24.40
2022-12-15T16:18:20.026Z,27.70
2022-12-15T16:20:48.965Z,33.73
2022-12-15T16:23:17.766Z,30.23
2022-12-15T16:25:50.741Z,27.77
2022-12-15T16:28:22.543Z,25.57
2022-12-15T16:30:49.465Z,31.27
2022-12-15T16:33:16.534Z,29.40
2022-12-15T16:35:43.990Z,29.97
2022-12-15T16:38:30.815Z,38.43
2022-12-15T16:41:05.139Z,23.80
2022-12-15T16:43:37.259Z,27.30
2022-12-15T16:46:06.122Z,31.77
2022-12-15T16:48:33.151Z,26.93
2022-12-15T16:51:00.183Z,30.70
2022-12-15T16:53:29.979Z,37.00
2022-12-15T16:55:58.119Z,38.27
2022-12-15T16:58:26.011Z,37.43
2022-12-15T17:00:53.814Z,49.17
2022-12-15T17:03:26.084Z,36.90
2022-12-15T17:05:54.920Z,36.47
2022-12-15T17:08:24.885Z,32.83
2022-12-15T17:10:51.625Z,38.67
2022-12-15T17:13:41.959Z,34.50
2022-12-15T17:16:14.176Z,38.53
2022-12-15T17:18:42.605Z,40.00
2022-12-15T17:21:13.929Z,43.80
2022-12-15T17:23:41.089Z,38.30
2022-12-15T17:26:25.673Z,42.67
2022-12-15T17:28:55.644Z,42.13
2022-12-15T17:31:24.010Z,36.03
2022-12-15T17:33:50.696Z,40.00
2022-12-15T17:36:20.763Z,40.43
2022-12-15T17:38:49.630Z,48.80
2022-12-15T17:41:42.402Z,43.27
2022-12-15T17:44:31.838Z,39.17
2022-12-15T17:46:49.526Z,37.63
2022-12-15T17:49:16.248Z,37.87
2022-12-15T17:51:43.973Z,42.80
2022-12-15T17:54:15.166Z,40.23
2022-12-15T17:56:42.991Z,39.73
2022-12-15T17:59:14.286Z,39.13
2022-12-15T18:01:42.869Z,40.27
2022-12-15T18:04:10.389Z,43.63
2022-12-15T18:06:41.032Z,42.03
2022-12-15T18:09:15.852Z,40.13
2022-12-15T18:11:45.085Z,43.37
2022-12-15T18:14:17.833Z,42.33
2022-12-15T18:16:47.880Z,45.97
2022-12-15T18:19:14.527Z,43.63
2022-12-15T18:21:41.116Z,36.47
2022-12-15T18:24:15.437Z,34.97
2022-12-15T18:26:42.150Z,38.23
2022-12-15T18:29:14.185Z,40.80
2022-12-15T18:31:41.617Z,38.17
2022-12-15T18:34:17.357Z,37.23
2022-12-15T18:36:44.096Z,36.17
2022-12-15T18:39:17.372Z,42.63
2022-12-15T18:41:43.925Z,40.77
2022-12-15T18:44:24.232Z,41.73
2022-12-15T18:46:51.000Z,42.53
2022-12-15T18:49:19.319Z,47.53
2022-12-15T18:51:47.151Z,43.33
2022-12-15T18:54:22.017Z,43.57
2022-12-15T18:56:49.055Z,36.30
2022-12-15T18:59:17.063Z,40.93
2022-12-15T19:01:45.496Z,38.00
2022-12-15T19:04:12.561Z,43.77
2022-12-15T19:06:40.411Z,42.37
2022-12-15T19:09:13.826Z,44.50
2022-12-15T19:11:40.448Z,37.80
2022-12-15T19:14:33.202Z,41.47
2022-12-15T19:17:18.446Z,43.03
2022-12-15T19:20:03.593Z,48.77
2022-12-15T19:22:31.170Z,47.90
2022-12-15T19:24:58.698Z,44.63
2022-12-15T19:27:26.506Z,46.97
2022-12-15T19:29:54.294Z,44.53
2022-12-15T19:32:21.068Z,46.50
2022-12-15T19:34:47.519Z,43.20
2022-12-15T19:37:21.785Z,42.77
2022-12-15T19:39:48.527Z,44.63
2022-12-15T19:42:19.845Z,47.60
2022-12-15T19:44:46.428Z,41.50
2022-12-15T19:47:13.649Z,43.90
2022-12-15T19:49:41.309Z,44.03
2022-12-15T19:52:15.252Z,43.73
2022-12-15T19:54:43.282Z,42.87
2022-12-15T19:57:15.387Z,43.43
2022-12-15T19:59:41.829Z,43.93
2022-12-15T20:02:21.559Z,52.37
2022-12-15T20:04:48.651Z,59.23
2022-12-15T20:07:18.759Z,49.23
2022-12-15T20:09:46.487Z,48.70
2022-12-15T20:12:17.879Z,49.40
2022-12-15T20:14:45.088Z,46.63
2022-12-15T20:17:11.539Z,42.20
2022-12-15T20:19:40.808Z,43.30
2022-12-15T20:22:13.404Z,51.40
2022-12-15T20:24:40.203Z,47.60
2022-12-15T20:27:12.825Z,43.17
2022-12-15T20:29:39.516Z,40.00
2022-12-15T20:32:13.550Z,38.60
2022-12-15T20:34:40.259Z,37.00
2022-12-15T20:37:20.591Z,51.90
2022-12-15T20:39:48.692Z,43.17
2022-12-15T20:42:19.591Z,35.90
2022-12-15T20:44:46.012Z,36.50
2022-12-15T20:47:21.953Z,33.63
2022-12-15T20:49:51.972Z,31.80
2022-12-15T20:52:23.659Z,33.63
2022-12-15T20:54:51.214Z,32.17
2022-12-15T20:57:17.761Z,33.90
2022-12-15T20:59:44.718Z,34.87
2022-12-15T21:02:19.484Z,36.30
2022-12-15T21:04:46.062Z,31.60
2022-12-15T21:07:12.662Z,33.17
2022-12-15T21:09:39.303Z,29.90
2022-12-15T21:12:26.425Z,40.00
2022-12-15T21:14:53.711Z,32.00
2022-12-15T21:17:25.934Z,36.13
2022-12-15T21:19:52.703Z,33.13
2022-12-15T21:22:26.354Z,28.60
2022-12-15T21:24:58.229Z,29.93
2022-12-15T21:27:25.089Z,27.87
2022-12-15T21:29:52.952Z,30.87
2022-12-15T21:32:20.125Z,32.77
2022-12-15T21:34:46.638Z,31.00
2022-12-15T21:37:43.297Z,35.27
2022-12-15T21:40:16.920Z,27.10
2022-12-15T21:42:43.336Z,27.30
2022-12-15T21:45:17.490Z,30.23
2022-12-15T21:48:02.500Z,29.87
2022-12-15T21:50:29.052Z,35.67
2022-12-15T21:52:55.630Z,31.53
2022-12-15T21:55:24.558Z,31.60
2022-12-15T21:57:51.662Z,33.33
2022-12-15T22:00:19.316Z,32.30
2022-12-15T22:02:47.684Z,29.60
2022-12-15T22:05:25.042Z,31.83
2022-12-15T22:07:51.677Z,35.43
2022-12-15T22:10:18.362Z,32.40
2022-12-15T22:12:48.657Z,34.93
2022-12-15T22:15:18.308Z,32.80
2022-12-15T22:17:44.991Z,33.80
2022-12-15T22:20:16.392Z,31.33
2022-12-15T22:22:42.792Z,29.93
2022-12-15T22:25:15.988Z,33.77
2022-12-15T22:27:42.672Z,35.20
2022-12-15T22:30:21.653Z,35.97
2022-12-15T22:32:48.223Z,32.70
2022-12-15T22:35:20.144Z,37.83
2022-12-15T22:37:47.246Z,34.90
2022-12-15T22:40:14.396Z,41.77
2022-12-15T22:42:46.560Z,36.43
2022-12-15T22:45:16.338Z,33.20
2022-12-15T22:47:43.409Z,31.10
2022-12-15T22:50:21.046Z,34.63
2022-12-15T22:52:47.876Z,32.37
2022-12-15T22:55:18.998Z,38.13
2022-12-15T22:57:56.170Z,32.50
2022-12-15T23:00:22.620Z,32.00
2022-12-15T23:02:49.098Z,32.40
2022-12-15T23:05:17.615Z,34.10
2022-12-15T23:07:44.516Z,35.67
2022-12-15T23:10:32.164Z,33.07
2022-12-15T23:13:01.158Z,34.27
2022-12-15T23:15:46.987Z,33.30
2022-12-15T23:18:14.323Z,33.97
2022-12-15T23:20:41.346Z,35.37
2022-12-15T23:23:09.498Z,31.70
2022-12-15T23:25:36.028Z,32.13
2022-12-15T23:28:03.103Z,29.87
2022-12-15T23:30:29.697Z,35.23
2022-12-15T23:32:56.099Z,34.20
2022-12-15T23:35:22.585Z,33.03
2022-12-15T23:37:49.028Z,33.50
2022-12-15T23:40:21.172Z,31.40
2022-12-15T23:42:48.530Z,37.87
2022-12-15T23:45:15.273Z,30.83
2022-12-15T23:47:41.715Z,36.33
2022-12-15T23:50:08.678Z,35.73
2022-12-15T23:52:35.231Z,34.87
2022-12-15T23:55:02.051Z,33.00
2022-12-15T23:57:28.619Z,34.53
2022-12-15T23:59:55.056Z,38.97
